Time;durP1;ratioP1;P1;durP2;ratioP2;P2;SDS_P1;SDS_P2;PMS_P1;PMS_P2;Temp;Humidity;BMP_temperature;BMP_pressure;BME280_temperature;BME280_humidity;BME280_pressure;Samples;Min_cycle;Max_cycle;Signal;HPM_P1;HPM_P2
2023/01/02 00:00:50;;;;;;;276.57;99.30;;;;;;;10.60;73.97;100974.50;1589513;89;21177;-73
2023/01/02 00:03:19;;;;;;;264.43;82.00;;;;;;;10.56;74.00;100975.47;1590261;88;21350;-73
2023/01/02 00:05:46;;;;;;;162.50;43.50;;;;;;;10.52;74.08;100972.08;1592063;88;21249;-73
2023/01/02 00:08:15;;;;;;;101.90;30.17;;;;;;;10.51;74.17;100966.44;1589295;88;21098;-73
2023/01/02 00:10:43;;;;;;;35.27;14.50;;;;;;;10.52;74.23;100962.91;1608078;87;21084;-73
2023/01/02 00:13:13;;;;;;;17.40;10.03;;;;;;;10.50;74.29;100967.32;1590687;90;21487;-73
2023/01/02 00:15:40;;;;;;;22.30;11.47;;;;;;;10.46;74.24;100965.70;1588972;88;21669;-73
2023/01/02 00:18:07;;;;;;;16.73;9.80;;;;;;;10.45;74.39;100958.30;1590257;88;21223;-73
2023/01/02 00:20:34;;;;;;;24.33;11.97;;;;;;;10.45;74.52;100956.98;1590015;88;21125;-73
2023/01/02 00:23:03;;;;;;;23.50;11.07;;;;;;;10.47;74.56;100956.50;1589854;89;21097;-73
2023/01/02 00:25:33;;;;;;;35.63;14.17;;;;;;;10.49;74.62;100955.13;1589035;88;21103;-73
2023/01/02 00:28:01;;;;;;;32.30;12.93;;;;;;;10.51;74.62;100951.17;1608314;86;21127;-73
2023/01/02 00:30:30;;;;;;;34.30;13.90;;;;;;;10.52;74.61;100950.26;1590436;89;21951;-73
2023/01/02 00:32:58;;;;;;;35.70;14.83;;;;;;;10.54;74.64;100950.62;1588902;88;21642;-73
2023/01/02 00:35:25;;;;;;;38.27;16.37;;;;;;;10.55;74.65;100947.09;1588996;89;21153;-73
2023/01/02 00:37:52;;;;;;;24.33;12.67;;;;;;;10.57;74.64;100941.82;1604290;87;21103;-73
2023/01/02 00:40:21;;;;;;;24.47;11.93;;;;;;;10.59;74.65;100933.47;1634688;87;21150;-73
2023/01/02 00:42:48;;;;;;;19.90;11.17;;;;;;;10.58;74.60;100936.52;1634001;87;21991;-73
2023/01/02 00:45:15;;;;;;;17.80;10.03;;;;;;;10.57;74.58;100932.19;1636418;87;21068;-73
2023/01/02 00:47:42;;;;;;;27.43;12.80;;;;;;;10.56;74.54;100937.45;1634532;87;21538;-73
2023/01/02 00:50:09;;;;;;;38.47;15.93;;;;;;;10.53;74.57;100931.00;1635253;87;21160;-73
2023/01/02 00:52:36;;;;;;;27.23;12.90;;;;;;;10.52;74.58;100934.53;1634499;87;21087;-73
2023/01/02 00:55:04;;;;;;;23.77;12.67;;;;;;;10.50;74.62;100933.25;1637851;86;22086;-73
2023/01/02 00:57:31;;;;;;;27.07;14.07;;;;;;;10.47;74.62;100935.53;1634709;87;21041;-73
2023/01/02 00:59:58;;;;;;;34.10;15.43;;;;;;;10.43;74.59;100939.13;1602630;88;21669;-73
2023/01/02 01:02:28;;;;;;;25.27;13.15;;;;;;;10.42;74.67;100935.22;1603987;87;21085;-73
2023/01/02 01:04:55;;;;;;;25.10;12.47;;;;;;;10.40;74.72;100935.28;1596629;87;21090;-73
2023/01/02 01:07:23;;;;;;;27.40;14.07;;;;;;;10.39;74.81;100926.14;1618089;87;21922;-73
2023/01/02 01:09:50;;;;;;;22.33;11.67;;;;;;;10.40;74.87;100930.50;1618861;87;21528;-73
2023/01/02 01:12:17;;;;;;;16.00;9.70;;;;;;;10.40;74.90;100927.88;1588999;89;21071;-73
2023/01/02 01:14:44;;;;;;;18.45;9.60;;;;;;;10.40;74.91;100930.50;1619295;87;21048;-73
2023/01/02 01:17:11;;;;;;;19.50;9.90;;;;;;;10.37;74.95;100935.37;1619216;87;21452;-73
2023/01/02 01:19:38;;;;;;;21.23;11.20;;;;;;;10.36;74.92;100941.49;1621636;87;21771;-72
2023/01/02 01:22:07;;;;;;;29.90;14.23;;;;;;;10.34;74.94;100938.54;1620204;87;21063;-73
2023/01/02 01:24:34;;;;;;;34.50;15.93;;;;;;;10.36;75.08;100940.19;1619111;87;21139;-73
2023/01/02 01:27:02;;;;;;;125.43;41.50;;;;;;;10.37;75.11;100937.99;1618548;87;21781;-73
2023/01/02 01:29:29;;;;;;;49.73;19.10;;;;;;;10.38;75.14;100930.53;1620681;87;21099;-73
2023/01/02 01:31:56;;;;;;;57.30;18.47;;;;;;;10.42;75.15;100919.50;1618319;87;21988;-73
2023/01/02 01:34:23;;;;;;;42.23;14.57;;;;;;;10.45;75.13;100922.91;1619007;87;21371;-73
2023/01/02 01:36:50;;;;;;;38.47;15.17;;;;;;;10.47;75.12;100927.67;1618983;87;20960;-73
2023/01/02 01:39:17;;;;;;;32.10;13.00;;;;;;;10.48;75.08;100921.97;1619709;87;21051;-73
2023/01/02 01:41:46;;;;;;;22.43;11.20;;;;;;;10.49;75.04;100920.60;1619790;87;21070;-73
2023/01/02 01:44:44;;;;;;;25.93;11.47;;;;;;;10.51;75.00;100915.79;1620205;87;21819;-73
2023/01/02 01:47:32;;;;;;;21.23;10.03;;;;;;;10.52;74.98;100906.55;1619845;87;21095;-73
2023/01/02 01:50:10;;;;;;;17.63;9.03;;;;;;;10.52;74.92;100905.70;1613061;87;21119;-73
2023/01/02 01:52:51;;;;;;;23.43;10.83;;;;;;;10.47;74.89;100900.16;1619008;87;21071;-73
2023/01/02 01:55:27;;;;;;;20.50;10.00;;;;;;;10.46;74.89;100901.49;1621969;87;21108;-73
2023/01/02 01:58:02;;;;;;;18.10;10.03;;;;;;;10.45;74.92;100895.86;1619853;88;21143;-73
2023/01/02 02:00:30;;;;;;;18.60;10.03;;;;;;;10.44;74.91;100885.80;1618847;86;22245;-73
2023/01/02 02:03:01;;;;;;;18.30;10.50;;;;;;;10.44;74.93;100887.11;1619369;87;21103;-72
2023/01/02 02:05:31;;;;;;;15.83;9.03;;;;;;;10.44;74.94;100884.95;1611965;86;21114;-73
2023/01/02 02:08:09;;;;;;;16.67;9.40;;;;;;;10.44;74.93;100880.55;1598494;87;21063;-73
2023/01/02 02:10:37;;;;;;;15.33;8.90;;;;;;;10.47;74.93;100875.25;1595842;86;21130;-73
2023/01/02 02:13:04;;;;;;;13.43;7.63;;;;;;;10.51;74.92;100864.68;1598084;87;21146;-74
2023/01/02 02:16:04;;;;;;;15.43;7.90;;;;;;;10.51;74.79;100858.98;1609716;87;21315;-73
2023/01/02 02:19:08;;;;;;;15.50;8.40;;;;;;;10.49;74.67;100860.78;1607682;86;21063;-74
2023/01/02 02:22:15;;;;;;;15.67;8.33;;;;;;;10.47;74.71;100852.98;1602072;87;21078;-73
2023/01/02 02:25:20;;;;;;;15.53;8.40;;;;;;;10.49;74.78;100851.61;1625905;87;21118;-73
2023/01/02 02:28:12;;;;;;;17.47;8.70;;;;;;;10.51;74.73;100852.43;1604236;87;21075;-73
2023/01/02 02:31:03;;;;;;;13.93;8.13;;;;;;;10.54;74.74;100841.84;1599525;86;21082;-73
2023/01/02 02:33:41;;;;;;;21.73;10.73;;;;;;;10.56;74.68;100834.80;1617497;86;21591;-73
2023/01/02 02:36:29;;;;;;;73.20;32.27;;;;;;;10.58;74.61;100825.57;1599455;86;21116;-73
2023/01/02 02:39:20;;;;;;;50.53;18.63;;;;;;;10.58;74.54;100827.73;1612373;86;21104;-73
2023/01/02 02:42:10;;;;;;;36.80;12.43;;;;;;;10.59;74.46;100826.84;1607307;86;21759;-73
2023/01/02 02:44:57;;;;;;;31.40;12.98;;;;;;;10.60;74.40;100815.91;1599441;86;21981;-73
2023/01/02 02:47:42;;;;;;;19.03;9.77;;;;;;;10.59;74.35;100824.69;1598914;86;21592;-73
2023/01/02 02:50:23;;;;;;;19.87;9.60;;;;;;;10.57;74.30;100814.23;1597786;87;21066;-73
2023/01/02 02:53:13;;;;;;;17.17;8.90;;;;;;;10.56;74.24;100810.33;1605994;87;21140;-72
2023/01/02 02:55:46;;;;;;;;;;;;;;;10.53;74.25;100806.50;1620380;86;20956;-73
2023/01/02 02:58:15;;;;;;;16.47;8.77;;;;;;;10.51;74.27;100807.88;1622419;87;20210;-73
2023/01/02 03:00:42;;;;;;;15.57;8.47;;;;;;;10.49;74.31;100799.19;1604346;86;21453;-73
2023/01/02 03:03:20;;;;;;;16.73;9.40;;;;;;;10.47;74.32;100795.32;1601313;86;21066;-73
2023/01/02 03:06:19;;;;;;;30.30;17.33;;;;;;;10.48;74.34;100797.03;1610265;85;21160;-73
2023/01/02 03:09:21;;;;;;;63.67;27.60;;;;;;;10.52;74.44;100797.78;1634485;87;21084;-73
2023/01/02 03:12:21;;;;;;;31.73;12.53;;;;;;;10.56;74.44;100788.94;1633986;87;21064;-73
2023/01/02 03:14:59;;;;;;;25.93;11.10;;;;;;;10.60;74.41;100793.16;1637144;87;21574;-72
2023/01/02 03:17:51;;;;;;;20.13;9.93;;;;;;;10.63;74.35;100792.22;1634669;87;21067;-73
2023/01/02 03:20:22;;;;;;;14.93;8.27;;;;;;;10.64;74.29;100787.36;1634713;87;21315;-73
2023/01/02 03:22:54;;;;;;;14.17;8.00;;;;;;;10.65;74.23;100785.17;1634774;87;21071;-72
2023/01/02 03:25:22;;;;;;;15.50;9.03;;;;;;;10.63;74.21;100786.97;1634455;87;21068;-73
2023/01/02 03:27:51;;;;;;;17.73;9.27;;;;;;;10.62;74.17;100783.95;1637026;87;21085;-72
2023/01/02 03:30:21;;;;;;;15.40;8.53;;;;;;;10.61;74.12;100788.77;1638684;87;21578;-73
2023/01/02 03:33:14;;;;;;;14.23;7.60;;;;;;;10.60;74.09;100780.06;1607636;88;21161;-73
2023/01/02 03:35:49;;;;;;;12.80;7.40;;;;;;;10.58;74.08;100777.08;1590606;88;21103;-72
2023/01/02 03:38:22;;;;;;;14.17;7.83;;;;;;;10.56;74.08;100780.19;1590198;88;21183;-73
2023/01/02 03:40:54;;;;;;;12.90;7.37;;;;;;;10.54;74.10;100778.09;1590401;89;21068;-73
2023/01/02 03:43:28;;;;;;;16.23;7.63;;;;;;;10.51;74.17;100779.50;1589457;88;22483;-72
2023/01/02 03:46:03;;;;;;;15.03;7.57;;;;;;;10.50;74.15;100775.99;1591680;89;21548;-72
2023/01/02 03:48:41;;;;;;;12.73;7.83;;;;;;;10.48;74.19;100772.13;1589086;88;21093;-73
2023/01/02 03:51:09;;;;;;;11.90;6.90;;;;;;;10.48;74.22;100776.52;1590380;89;21059;-73
2023/01/02 03:53:39;;;;;;;15.30;7.93;;;;;;;10.45;74.27;100757.81;1591059;88;21094;-72
2023/01/02 03:56:30;;;;;;;15.47;7.80;;;;;;;10.43;74.25;100756.99;1590439;90;21131;-72
2023/01/02 03:59:09;;;;;;;13.80;7.43;;;;;;;10.41;74.25;100763.19;1589642;88;21699;-73
2023/01/02 04:01:50;;;;;;;16.97;7.77;;;;;;;10.39;74.34;100759.74;1591109;89;21079;-73
2023/01/02 04:04:38;;;;;;;14.40;7.93;;;;;;;10.36;74.37;100776.88;1589575;89;21165;-73
2023/01/02 04:07:10;;;;;;;14.57;8.20;;;;;;;10.33;74.43;100766.03;1590421;88;21161;-73
2023/01/02 04:09:40;;;;;;;15.63;7.57;;;;;;;10.33;74.53;100745.06;1590613;88;21099;-73
2023/01/02 04:12:14;;;;;;;13.20;7.35;;;;;;;10.32;74.61;100742.52;1636354;87;21572;-73
2023/01/02 04:14:46;;;;;;;14.27;8.70;;;;;;;10.34;74.85;100753.81;1633792;87;21359;-73
2023/01/02 04:17:16;;;;;;;16.40;8.93;;;;;;;10.35;74.94;100751.59;1635499;85;21079;-74
2023/01/02 04:19:55;;;;;;;11.93;7.63;;;;;;;10.35;74.98;100735.86;1634955;87;21087;-74
2023/01/02 04:22:27;;;;;;;12.70;7.43;;;;;;;10.37;75.06;100723.12;1633312;87;21508;-74
2023/01/02 04:25:15;;;;;;;12.17;7.10;;;;;;;10.36;75.04;100720.08;1633943;87;21236;-73
2023/01/02 04:28:01;;;;;;;13.23;7.87;;;;;;;10.31;74.99;100719.39;1634511;87;21612;-73
2023/01/02 04:30:32;;;;;;;10.90;6.97;;;;;;;10.26;75.03;100714.70;1633935;87;21044;-73
2023/01/02 04:33:05;;;;;;;13.30;7.57;;;;;;;10.22;75.05;100713.06;1634176;87;21094;-73
2023/01/02 04:35:33;;;;;;;10.00;7.13;;;;;;;10.18;75.16;100704.45;1634476;87;21423;-73
2023/01/02 04:38:09;;;;;;;13.40;7.10;;;;;;;10.17;75.19;100706.68;1615185;87;21507;-73
2023/01/02 04:40:37;;;;;;;13.33;7.27;;;;;;;10.16;75.29;100704.09;1634920;86;21052;-73
2023/01/02 04:43:20;;;;;;;12.37;7.17;;;;;;;10.14;75.25;100713.33;1607496;88;21099;-73
2023/01/02 04:45:49;;;;;;;12.80;7.93;;;;;;;10.12;75.37;100712.50;1590169;88;21095;-73
2023/01/02 04:48:16;;;;;;;19.07;10.27;;;;;;;10.11;75.35;100712.54;1591319;88;21090;-73
2023/01/02 04:50:44;;;;;;;16.20;8.30;;;;;;;10.09;75.39;100715.22;1607894;88;21943;-72
2023/01/02 04:53:12;;;;;;;15.57;8.27;;;;;;;10.09;75.41;100718.27;1591136;90;21670;-72
2023/01/02 04:55:39;;;;;;;14.20;7.07;;;;;;;10.09;75.51;100715.64;1589578;88;21604;-72
2023/01/02 04:58:07;;;;;;;11.67;6.40;;;;;;;10.13;75.57;100719.91;1591465;89;21541;-73
2023/01/02 05:00:34;;;;;;;12.60;6.27;;;;;;;10.18;75.54;100716.70;1589579;88;21701;-73
2023/01/02 05:03:03;;;;;;;9.90;5.80;;;;;;;10.26;75.61;100718.64;1590910;89;21164;-73
2023/01/02 05:05:31;;;;;;;11.80;5.70;;;;;;;10.32;75.56;100712.38;1590342;87;21063;-73
2023/01/02 05:07:58;;;;;;;9.77;6.00;;;;;;;10.40;75.50;100717.78;1590347;88;21094;-73
2023/01/02 05:10:25;;;;;;;9.87;5.30;;;;;;;10.45;75.33;100708.02;1589211;88;21690;-73
2023/01/02 05:12:52;;;;;;;12.23;5.93;;;;;;;10.53;75.20;100712.14;1589018;89;21117;-73
2023/01/02 05:15:21;;;;;;;9.45;5.53;;;;;;;10.57;75.04;100704.61;1589018;90;21147;-73
2023/01/02 05:17:48;;;;;;;14.10;6.23;;;;;;;10.59;74.89;100706.27;1589719;88;21112;-73
2023/01/02 05:20:16;;;;;;;13.77;6.77;;;;;;;10.64;74.81;100702.17;1588062;89;21121;-73
2023/01/02 05:25:34;;;;;;;9.30;5.80;;;;;;;10.68;74.60;100701.18;1588842;90;21150;-73
2023/01/02 05:28:03;;;;;;;10.27;6.23;;;;;;;10.71;74.50;100705.01;1588250;89;21632;-73
2023/01/02 05:30:30;;;;;;;9.23;5.80;;;;;;;10.73;74.40;100691.86;1589045;90;21129;-73
2023/01/02 05:32:57;;;;;;;8.63;5.60;;;;;;;10.75;74.31;100696.12;1588592;89;21132;-74
2023/01/02 05:35:24;;;;;;;8.97;5.03;;;;;;;10.79;74.22;100695.59;1589395;88;21078;-73
2023/01/02 05:37:53;;;;;;;10.27;5.60;;;;;;;10.80;74.17;100697.29;1589219;88;21097;-74
2023/01/02 05:40:20;;;;;;;8.33;5.00;;;;;;;10.82;74.09;100699.41;1589394;90;21279;-73
2023/01/02 05:42:47;;;;;;;8.30;5.58;;;;;;;10.81;73.97;100692.44;1590311;88;21105;-73
2023/01/02 05:45:14;;;;;;;10.03;5.13;;;;;;;10.83;73.94;100698.50;1587641;89;21137;-73
2023/01/02 05:47:41;;;;;;;22.83;12.00;;;;;;;10.82;73.87;100697.64;1589417;90;21100;-73
2023/01/02 05:50:09;;;;;;;36.63;18.10;;;;;;;10.83;73.86;100703.28;1596265;88;21540;-74
2023/01/02 05:52:36;;;;;;;28.03;13.97;;;;;;;10.85;73.78;100693.61;1591482;90;21213;-73
2023/01/02 05:55:04;;;;;;;13.73;7.17;;;;;;;10.86;73.72;100699.27;1592696;88;21533;-73
2023/01/02 05:57:31;;;;;;;10.23;6.15;;;;;;;10.86;73.64;100696.65;1593631;88;21059;-73
2023/01/02 05:59:58;;;;;;;8.90;5.73;;;;;;;10.85;73.56;100688.82;1591324;88;21521;-73
2023/01/02 06:02:25;;;;;;;6.90;4.87;;;;;;;10.84;73.45;100689.73;1592626;88;21560;-73
2023/01/02 06:04:52;;;;;;;9.43;4.83;;;;;;;10.83;73.44;100686.70;1592675;87;21151;-73
2023/01/02 06:07:19;;;;;;;9.33;4.58;;;;;;;10.82;73.42;100692.40;1592645;88;21094;-73
2023/01/02 06:09:46;;;;;;;7.50;5.25;;;;;;;10.81;73.35;100690.70;1591063;88;21088;-73
2023/01/02 06:12:13;;;;;;;10.00;5.93;;;;;;;10.79;73.32;100687.27;1601029;87;21380;-73
2023/01/02 06:14:40;;;;;;;12.20;6.37;;;;;;;10.77;73.29;100687.76;1596422;88;21046;-73
2023/01/02 06:17:07;;;;;;;19.20;10.57;;;;;;;10.78;73.29;100693.85;1596704;88;21139;-73
2023/01/02 06:19:34;;;;;;;33.80;17.20;;;;;;;10.76;73.22;100692.61;1592213;89;21592;-73
2023/01/02 06:22:01;;;;;;;23.73;9.43;;;;;;;10.74;73.17;100692.25;1592428;89;21162;-73
2023/01/02 06:24:29;;;;;;;21.63;8.63;;;;;;;10.73;73.17;100696.64;1591317;88;21103;-73
2023/01/02 06:26:56;;;;;;;22.47;9.20;;;;;;;10.73;73.19;100699.73;1593712;87;21115;-74
2023/01/02 06:29:23;;;;;;;14.77;5.27;;;;;;;10.71;73.12;100711.10;1592561;88;21157;-73
2023/01/02 06:31:51;;;;;;;12.83;4.90;;;;;;;10.70;73.11;100712.02;1590339;89;21071;-74
2023/01/02 06:34:18;;;;;;;10.43;5.07;;;;;;;10.70;73.10;100713.33;1591180;88;21059;-73
2023/01/02 06:36:45;;;;;;;13.77;6.10;;;;;;;10.70;73.10;100711.17;1593806;88;21167;-73
2023/01/02 06:39:12;;;;;;;11.20;4.67;;;;;;;10.70;73.10;100713.33;1595513;88;21144;-73
2023/01/02 06:41:39;;;;;;;15.83;6.07;;;;;;;10.71;73.10;100715.03;1591919;88;21137;-74
2023/01/02 06:44:08;;;;;;;19.67;7.10;;;;;;;10.74;73.14;100717.16;1592596;88;21056;-74
2023/01/02 06:46:35;;;;;;;10.20;4.60;;;;;;;10.76;73.09;100714.89;1593209;88;21110;-74
2023/01/02 06:49:02;;;;;;;16.87;7.47;;;;;;;10.79;73.13;100711.32;1593756;87;21623;-74
2023/01/02 06:51:30;;;;;;;13.10;6.57;;;;;;;10.81;73.11;100706.43;1592890;87;21551;-74
2023/01/02 06:53:57;;;;;;;44.30;23.43;;;;;;;10.84;73.09;100708.95;1593342;88;21601;-74
2023/01/02 06:56:24;;;;;;;41.70;16.97;;;;;;;10.86;73.09;100708.45;1592072;88;21580;-74
2023/01/02 06:58:51;;;;;;;27.13;10.63;;;;;;;10.88;73.08;100706.61;1596345;88;21058;-74
2023/01/02 07:01:21;;;;;;;21.60;7.00;;;;;;;10.93;73.02;100715.19;1591983;88;21095;-79
2023/01/02 07:03:48;;;;;;;;;;;;;;;10.95;72.97;100712.53;1593813;89;21115;-75
2023/01/02 07:06:20;;;;;;;27.07;8.97;;;;;;;10.99;72.91;100715.44;1591353;89;21097;-74
2023/01/02 07:08:48;;;;;;;129.30;47.60;;;;;;;11.04;72.90;100713.52;1605781;87;21989;-74
2023/01/02 07:11:24;;;;;;;63.68;21.97;;;;;;;11.09;72.86;100704.19;1618207;86;21096;-74
2023/01/02 07:13:53;;;;;;;27.13;10.43;;;;;;;11.13;72.75;100696.14;1606992;87;21466;-73
2023/01/02 07:16:22;;;;;;;18.87;6.73;;;;;;;11.13;72.63;100702.70;1608906;87;21044;-73
2023/01/02 07:18:52;;;;;;;13.97;5.20;;;;;;;11.13;72.57;100704.47;1598043;88;21766;-73
2023/01/02 07:21:20;;;;;;;8.68;4.42;;;;;;;11.12;72.56;100702.77;1597186;88;27587;-73
2023/01/02 07:23:47;;;;;;;6.37;3.70;;;;;;;11.10;72.41;100700.64;1646125;85;21112;-74
2023/01/02 07:26:14;;;;;;;5.25;3.42;;;;;;;11.06;72.31;100709.55;1616775;86;21579;-76
2023/01/02 07:28:42;;;;;;;9.23;5.00;;;;;;;11.02;72.33;100714.02;1606240;87;21086;-80
2023/01/02 07:31:15;;;;;;;7.13;3.87;;;;;;;10.99;72.27;100708.88;1606734;87;22172;-74
2023/01/02 07:33:42;;;;;;;5.87;3.83;;;;;;;10.96;72.34;100714.23;1609639;87;21116;-72
2023/01/02 07:36:21;;;;;;;6.73;3.77;;;;;;;10.94;72.35;100707.70;1614703;87;21095;-72
2023/01/02 07:38:56;;;;;;;5.65;3.37;;;;;;;10.89;72.31;100712.28;1645516;86;21065;-72
2023/01/02 07:41:25;;;;;;;5.97;3.27;;;;;;;10.83;72.35;100715.08;1617476;86;21121;-72
2023/01/02 07:43:55;;;;;;;5.70;3.50;;;;;;;10.80;72.46;100716.49;1606094;87;21605;-73
2023/01/02 07:46:23;;;;;;;5.53;3.65;;;;;;;10.79;72.51;100724.43;1607563;87;21099;-73
2023/01/02 07:48:50;;;;;;;6.40;3.80;;;;;;;10.75;72.52;100714.94;1606040;87;21539;-73
2023/01/02 07:51:17;;;;;;;6.28;3.72;;;;;;;10.68;72.48;100711.67;1607199;87;21115;-72
2023/01/02 07:53:44;;;;;;;7.22;3.90;;;;;;;10.64;72.49;100707.41;1603828;87;21091;-72
2023/01/02 07:56:12;;;;;;;4.90;3.47;;;;;;;10.59;72.54;100704.11;1614348;87;21172;-72
2023/01/02 07:58:39;;;;;;;7.13;4.47;;;;;;;10.54;72.66;100713.42;1610287;87;21088;-73
2023/01/02 08:01:15;;;;;;;12.40;6.03;;;;;;;10.56;72.84;100710.73;1614448;87;21517;-73
2023/01/02 08:03:40;;;;;;;8.90;4.63;;;;;;;10.55;72.88;100697.23;1613230;87;21578;-72
2023/01/02 08:06:11;;;;;;;6.93;4.20;;;;;;;10.50;72.78;100693.44;1614640;87;22402;-72
2023/01/02 08:08:38;;;;;;;;;;;;;;;10.46;72.85;100690.53;1612210;86;21110;-76
2023/01/02 08:11:11;;;;;;;16.27;7.53;;;;;;;10.46;72.98;100701.02;1596112;87;20503;-75
2023/01/02 08:13:38;;;;;;;9.73;5.13;;;;;;;10.48;73.13;100695.27;1610750;87;21014;-75
2023/01/02 08:16:10;;;;;;;14.10;6.90;;;;;;;10.55;73.28;100705.09;1626376;87;21231;-74
2023/01/02 08:18:37;;;;;;;14.73;7.07;;;;;;;10.62;73.40;100710.09;1597570;89;21071;-75
2023/01/02 08:21:05;;;;;;;13.63;5.87;;;;;;;10.69;73.53;100708.98;1572750;89;21253;-75
2023/01/02 08:23:33;;;;;;;11.07;5.00;;;;;;;10.72;73.39;100710.64;1594604;89;21099;-74
2023/01/02 08:26:03;;;;;;;7.05;3.70;;;;;;;10.73;73.25;100711.53;1627628;85;21090;-74
2023/01/02 08:28:30;;;;;;;;;;;;;;;10.74;73.15;100715.39;1620498;87;21066;-76
2023/01/02 08:30:59;;;;;;;7.47;3.70;;;;;;;10.80;73.36;100728.30;1595984;87;20594;-75
2023/01/02 08:33:26;;;;;;;10.80;4.78;;;;;;;10.91;73.51;100722.23;1596044;87;21322;-75
2023/01/02 08:35:55;;;;;;;19.10;7.10;;;;;;;11.06;73.57;100726.59;1609652;87;21610;-76
2023/01/02 08:38:22;;;;;;;11.08;4.58;;;;;;;11.16;73.45;100717.48;1619907;87;21090;-76
2023/01/02 08:40:50;;;;;;;20.10;7.45;;;;;;;11.26;73.34;100724.13;1615607;87;21074;-75
2023/01/02 08:43:17;;;;;;;124.18;47.38;;;;;;;11.35;73.28;100728.20;1614952;86;21575;-75
2023/01/02 08:45:44;;;;;;;48.40;17.37;;;;;;;11.46;73.23;100728.68;1591013;89;22021;-75
2023/01/02 08:48:11;;;;;;;35.35;12.68;;;;;;;11.60;73.25;100734.29;1607521;87;21754;-76
2023/01/02 08:50:38;;;;;;;16.87;7.37;;;;;;;11.70;73.18;100732.20;1595961;87;21142;-74
2023/01/02 08:53:05;;;;;;;18.67;7.37;;;;;;;11.81;73.05;100726.10;1601566;87;21087;-74
2023/01/02 08:55:32;;;;;;;31.97;12.23;;;;;;;11.90;72.88;100732.81;1583922;89;21102;-74
2023/01/02 08:57:59;;;;;;;36.95;12.82;;;;;;;11.97;72.73;100731.68;1596623;86;21675;-76
2023/01/02 09:00:26;;;;;;;37.65;12.45;;;;;;;12.03;72.55;100728.81;1596220;87;21089;-76
2023/01/02 09:02:53;;;;;;;18.98;7.85;;;;;;;12.09;72.41;100738.70;1617955;87;21066;-82
2023/01/02 09:05:20;;;;;;;26.42;11.03;;;;;;;12.13;72.25;100743.76;1605580;87;21534;-75
2023/01/02 09:07:47;;;;;;;23.62;9.25;;;;;;;12.19;72.18;100746.17;1597684;87;21116;-79
2023/01/02 09:10:15;;;;;;;25.68;11.15;;;;;;;12.25;72.05;100737.20;1633668;86;21652;-79
2023/01/02 09:12:42;;;;;;;8.40;4.47;;;;;;;12.30;71.85;100733.91;1634210;86;21079;-75
2023/01/02 09:15:10;;;;;;;10.48;5.33;;;;;;;12.32;71.77;100736.49;1632742;87;21080;-76
2023/01/02 09:17:38;;;;;;;17.60;7.62;;;;;;;12.34;71.71;100735.52;1606553;88;21573;-76
2023/01/02 09:20:05;;;;;;;16.52;6.40;;;;;;;12.39;71.63;100730.95;1634535;87;21062;-76
2023/01/02 09:22:33;;;;;;;19.17;7.67;;;;;;;12.44;71.51;100728.11;1633643;86;21533;-78
2023/01/02 09:25:00;;;;;;;17.48;6.47;;;;;;;12.49;71.37;100718.27;1632285;87;21069;-76
2023/01/02 09:27:27;;;;;;;20.82;7.70;;;;;;;12.53;71.37;100714.63;1634515;87;21128;-76
2023/01/02 09:29:55;;;;;;;19.48;8.23;;;;;;;12.59;71.29;100720.09;1633949;86;21104;-76
2023/01/02 09:32:22;;;;;;;8.95;4.55;;;;;;;12.63;71.17;100720.35;1634584;87;21071;-83
2023/01/02 09:34:49;;;;;;;14.18;5.15;;;;;;;12.75;71.22;100726.88;1633682;87;21142;-85
2023/01/02 09:37:17;;;;;;;19.55;8.63;;;;;;;12.88;71.18;100713.62;1634957;87;21068;-78
2023/01/02 09:39:45;;;;;;;9.50;5.45;;;;;;;12.97;70.99;100710.64;1636695;87;21101;-79
2023/01/02 09:42:16;;;;;;;10.53;5.40;;;;;;;13.03;70.88;100716.95;1636913;87;21003;-82
2023/01/02 09:44:51;;;;;;;21.70;12.70;;;;;;;13.11;70.69;100706.10;1635347;87;21077;-87
2023/01/02 09:47:25;;;;;;;11.93;6.75;;;;;;;13.15;70.49;100705.89;1635538;86;21132;-81
2023/01/02 09:50:02;;;;;;;21.73;10.60;;;;;;;13.21;70.42;100696.02;1634416;87;21076;-77
2023/01/02 09:52:39;;;;;;;16.42;7.08;;;;;;;13.25;70.23;100709.46;1636117;87;21079;-81
2023/01/02 09:55:38;;;;;;;21.40;8.98;;;;;;;13.27;70.10;100703.20;1636519;85;21085;-80
2023/01/02 09:58:44;;;;;;;16.60;8.30;;;;;;;13.55;70.15;100688.40;1601903;87;21087;-80
2023/01/02 10:01:20;;;;;;;13.58;7.17;;;;;;;13.90;70.01;100700.41;1606955;88;21138;-81
2023/01/02 10:04:04;;;;;;;9.37;5.70;;;;;;;14.20;69.71;100695.97;1590699;89;21615;-79
2023/01/02 10:06:46;;;;;;;13.30;6.67;;;;;;;14.48;69.29;100691.06;1590188;90;21645;-75
2023/01/02 10:09:18;;;;;;;8.50;5.28;;;;;;;14.85;69.15;100689.73;1589182;88;21119;-80
2023/01/02 10:12:22;;;;;;;8.88;5.58;;;;;;;15.06;68.18;100694.42;1585728;90;21538;-81
2023/01/02 10:14:58;;;;;;;16.67;9.63;;;;;;;15.06;68.18;100694.42;1569056;90;21875;-83
2023/01/02 10:17:28;;;;;;;10.90;5.62;;;;;;;15.03;67.70;100684.86;1587750;90;21605;-88
2023/01/02 10:20:06;;;;;;;13.08;8.53;;;;;;;14.99;67.30;100683.77;1580406;90;21087;-76
2023/01/02 10:22:45;;;;;;;9.05;6.12;;;;;;;14.88;67.13;100684.30;1589485;90;21015;-82
2023/01/02 10:25:24;;;;;;;16.82;9.98;;;;;;;14.82;67.09;100672.75;1583997;90;21143;-83
2023/01/02 10:27:59;;;;;;;12.37;6.33;;;;;;;14.85;67.11;100679.19;1591065;88;21153;-78
2023/01/02 10:30:29;;;;;;;15.95;8.75;;;;;;;15.09;67.18;100679.27;1572231;88;21155;-78
2023/01/02 10:33:23;;;;;;;6.85;4.78;;;;;;;15.23;66.95;100673.27;1581711;90;21099;-78
2023/01/02 10:36:01;;;;;;;12.98;6.60;;;;;;;15.53;67.04;100675.24;1578495;88;21103;-78
2023/01/02 10:38:38;;;;;;;5.42;4.40;;;;;;;15.82;66.48;100679.86;1586866;90;21110;-85
2023/01/02 10:41:06;;;;;;;4.95;3.80;;;;;;;15.82;66.48;100679.86;1575786;90;21218;-79
2023/01/02 10:43:34;;;;;;;18.55;8.70;;;;;;;15.80;66.03;100676.43;1584568;90;21577;-77
2023/01/02 10:46:03;;;;;;;8.30;4.78;;;;;;;15.73;65.75;100675.52;1581271;90;21091;-78
2023/01/02 10:48:34;;;;;;;13.88;6.67;;;;;;;15.64;65.53;100667.59;1582859;88;21632;-76
2023/01/02 10:51:06;;;;;;;12.40;6.08;;;;;;;15.40;65.06;100665.31;1590819;90;21095;-77
2023/01/02 10:53:36;;;;;;;23.10;10.98;;;;;;;15.40;65.06;100665.31;1591060;90;21126;-79
2023/01/02 10:56:06;;;;;;;;;;;;;;;15.26;64.98;100654.63;1593240;90;21087;-76
2023/01/02 10:58:34;;;;;;;22.25;8.85;;;;;;;15.24;64.92;100664.44;1590353;88;20234;-76
2023/01/02 11:01:09;;;;;;;10.58;5.42;;;;;;;15.21;65.05;100667.68;1591425;90;21337;-76
2023/01/02 11:03:37;;;;;;;27.60;10.82;;;;;;;15.18;65.06;100668.69;1587555;90;22131;-76
2023/01/02 11:06:06;;;;;;;18.73;8.55;;;;;;;15.12;64.85;100660.63;1598128;89;21916;-76
2023/01/02 11:08:38;;;;;;;19.67;8.38;;;;;;;15.08;64.99;100659.09;1583964;88;21078;-75
2023/01/02 11:11:17;;;;;;;24.98;9.28;;;;;;;14.93;65.00;100644.87;1584450;88;21102;-76
2023/01/02 11:13:48;;;;;;;23.98;9.53;;;;;;;14.93;65.00;100644.87;1597955;89;21116;-77
2023/01/02 11:16:17;;;;;;;15.85;7.45;;;;;;;14.94;65.14;100649.71;1632995;85;21098;-76
2023/01/02 11:18:51;;;;;;;13.05;6.53;;;;;;;14.86;65.08;100643.49;1634364;85;21871;-76
2023/01/02 11:21:32;;;;;;;25.92;10.85;;;;;;;14.82;65.16;100645.04;1631782;86;21089;-76
2023/01/02 11:24:04;;;;;;;24.50;9.58;;;;;;;14.76;65.09;100652.80;1632611;87;21111;-75
2023/01/02 11:26:34;;;;;;;20.60;9.13;;;;;;;14.69;65.18;100638.23;1606668;87;21134;-75
2023/01/02 11:29:09;;;;;;;15.45;5.90;;;;;;;14.65;65.28;100637.98;1633694;85;21109;-74
2023/01/02 11:31:46;;;;;;;19.67;8.48;;;;;;;14.65;65.29;100648.53;1634621;86;21095;-75
2023/01/02 11:34:23;;;;;;;12.60;5.92;;;;;;;14.66;65.24;100644.95;1633915;86;21105;-74
2023/01/02 11:37:14;;;;;;;6.45;3.50;;;;;;;14.63;65.07;100639.83;1631344;85;21074;-75
2023/01/02 11:39:42;;;;;;;22.80;9.73;;;;;;;14.63;65.03;100641.15;1633323;86;26150;-75
2023/01/02 11:45:15;;;;;;;11.05;4.97;;;;;;;14.54;65.06;100645.10;1607041;86;22533;-76